sensor_id;sensor_type;location;lat;lon;timestamp;P1;durP1;ratioP1;P2;durP2;ratioP2
15385;SDS011;7791;47.246;9.648;2022-08-02T00:00:26;1.90;;;1.67;;
15385;SDS011;7791;47.246;9.648;2022-08-02T00:03:00;3.80;;;1.90;;
15385;SDS011;7791;47.246;9.648;2022-08-02T00:05:28;3.00;;;1.80;;
15385;SDS011;7791;47.246;9.648;2022-08-02T00:07:54;4.77;;;1.90;;
15385;SDS011;7791;47.246;9.648;2022-08-02T00:10:36;3.67;;;1.80;;
15385;SDS011;7791;47.246;9.648;2022-08-02T00:13:07;5.60;;;2.40;;
15385;SDS011;7791;47.246;9.648;2022-08-02T00:15:34;2.67;;;1.80;;
15385;SDS011;7791;47.246;9.648;2022-08-02T00:18:02;2.80;;;1.83;;
15385;SDS011;7791;47.246;9.648;2022-08-02T00:20:29;2.73;;;2.20;;
15385;SDS011;7791;47.246;9.648;2022-08-02T00:23:02;3.63;;;2.03;;
15385;SDS011;7791;47.246;9.648;2022-08-02T00:25:30;2.93;;;1.63;;
15385;SDS011;7791;47.246;9.648;2022-08-02T00:28:12;2.07;;;1.63;;
15385;SDS011;7791;47.246;9.648;2022-08-02T00:30:40;4.33;;;1.63;;
15385;SDS011;7791;47.246;9.648;2022-08-02T00:33:15;4.53;;;1.83;;
15385;SDS011;7791;47.246;9.648;2022-08-02T00:35:46;2.63;;;1.70;;
15385;SDS011;7791;47.246;9.648;2022-08-02T00:38:13;3.00;;;1.53;;
15385;SDS011;7791;47.246;9.648;2022-08-02T00:43:39;2.67;;;1.80;;
15385;SDS011;7791;47.246;9.648;2022-08-02T00:46:06;2.33;;;1.70;;
15385;SDS011;7791;47.246;9.648;2022-08-02T00:48:35;2.23;;;1.60;;
15385;SDS011;7791;47.246;9.648;2022-08-02T00:51:04;1.67;;;1.57;;
15385;SDS011;7791;47.246;9.648;2022-08-02T00:53:35;2.40;;;1.90;;
15385;SDS011;7791;47.246;9.648;2022-08-02T00:59:18;2.47;;;1.60;;
15385;SDS011;7791;47.246;9.648;2022-08-02T01:01:48;2.93;;;1.80;;
15385;SDS011;7791;47.246;9.648;2022-08-02T01:04:15;2.27;;;1.50;;
15385;SDS011;7791;47.246;9.648;2022-08-02T01:06:42;4.63;;;1.93;;
15385;SDS011;7791;47.246;9.648;2022-08-02T01:09:09;3.23;;;1.63;;
15385;SDS011;7791;47.246;9.648;2022-08-02T01:11:40;3.63;;;1.63;;
15385;SDS011;7791;47.246;9.648;2022-08-02T01:14:12;2.00;;;1.53;;
15385;SDS011;7791;47.246;9.648;2022-08-02T01:16:42;2.30;;;1.50;;
15385;SDS011;7791;47.246;9.648;2022-08-02T01:19:20;2.30;;;1.40;;
15385;SDS011;7791;47.246;9.648;2022-08-02T01:22:18;2.10;;;1.50;;
15385;SDS011;7791;47.246;9.648;2022-08-02T01:25:06;3.87;;;1.47;;
15385;SDS011;7791;47.246;9.648;2022-08-02T01:27:45;2.97;;;1.33;;
15385;SDS011;7791;47.246;9.648;2022-08-02T01:30:30;2.50;;;1.20;;
15385;SDS011;7791;47.246;9.648;2022-08-02T01:33:02;3.10;;;1.40;;
15385;SDS011;7791;47.246;9.648;2022-08-02T01:35:32;2.03;;;1.40;;
15385;SDS011;7791;47.246;9.648;2022-08-02T01:38:06;3.00;;;1.30;;
15385;SDS011;7791;47.246;9.648;2022-08-02T01:40:38;2.47;;;1.47;;
15385;SDS011;7791;47.246;9.648;2022-08-02T01:43:11;3.87;;;1.10;;
15385;SDS011;7791;47.246;9.648;2022-08-02T01:45:45;2.10;;;1.30;;
15385;SDS011;7791;47.246;9.648;2022-08-02T01:48:15;1.70;;;1.30;;
15385;SDS011;7791;47.246;9.648;2022-08-02T01:50:43;2.70;;;1.60;;
15385;SDS011;7791;47.246;9.648;2022-08-02T01:53:13;2.10;;;1.40;;
15385;SDS011;7791;47.246;9.648;2022-08-02T01:55:44;3.00;;;1.70;;
15385;SDS011;7791;47.246;9.648;2022-08-02T01:58:18;2.03;;;1.70;;
15385;SDS011;7791;47.246;9.648;2022-08-02T02:00:58;3.03;;;1.33;;
15385;SDS011;7791;47.246;9.648;2022-08-02T02:03:28;2.03;;;1.50;;
15385;SDS011;7791;47.246;9.648;2022-08-02T02:05:56;3.13;;;1.60;;
15385;SDS011;7791;47.246;9.648;2022-08-02T02:08:31;2.97;;;1.80;;
15385;SDS011;7791;47.246;9.648;2022-08-02T02:11:04;2.23;;;1.80;;
15385;SDS011;7791;47.246;9.648;2022-08-02T02:13:36;3.33;;;1.60;;
15385;SDS011;7791;47.246;9.648;2022-08-02T02:16:04;2.67;;;1.83;;
15385;SDS011;7791;47.246;9.648;2022-08-02T02:18:47;4.73;;;2.13;;
15385;SDS011;7791;47.246;9.648;2022-08-02T02:21:19;2.10;;;1.60;;
15385;SDS011;7791;47.246;9.648;2022-08-02T02:23:53;5.63;;;2.00;;
15385;SDS011;7791;47.246;9.648;2022-08-02T02:26:22;4.17;;;2.00;;
15385;SDS011;7791;47.246;9.648;2022-08-02T02:28:51;2.53;;;1.77;;
15385;SDS011;7791;47.246;9.648;2022-08-02T02:31:24;3.40;;;2.00;;
15385;SDS011;7791;47.246;9.648;2022-08-02T02:33:56;3.83;;;1.80;;
15385;SDS011;7791;47.246;9.648;2022-08-02T02:36:26;3.30;;;1.70;;
15385;SDS011;7791;47.246;9.648;2022-08-02T02:38:56;4.60;;;1.90;;
15385;SDS011;7791;47.246;9.648;2022-08-02T02:41:28;4.40;;;1.93;;
15385;SDS011;7791;47.246;9.648;2022-08-02T02:43:57;2.83;;;1.80;;
15385;SDS011;7791;47.246;9.648;2022-08-02T02:46:33;5.00;;;1.83;;
15385;SDS011;7791;47.246;9.648;2022-08-02T02:49:08;3.77;;;1.80;;
15385;SDS011;7791;47.246;9.648;2022-08-02T02:51:55;4.17;;;1.90;;
15385;SDS011;7791;47.246;9.648;2022-08-02T02:54:24;6.33;;;2.20;;
15385;SDS011;7791;47.246;9.648;2022-08-02T02:56:53;2.77;;;2.33;;
15385;SDS011;7791;47.246;9.648;2022-08-02T02:59:22;5.10;;;1.90;;
15385;SDS011;7791;47.246;9.648;2022-08-02T03:01:48;3.60;;;2.00;;
15385;SDS011;7791;47.246;9.648;2022-08-02T03:04:16;3.70;;;1.90;;
15385;SDS011;7791;47.246;9.648;2022-08-02T03:06:47;3.53;;;1.90;;
15385;SDS011;7791;47.246;9.648;2022-08-02T03:09:14;2.97;;;1.83;;
15385;SDS011;7791;47.246;9.648;2022-08-02T03:11:41;3.33;;;1.83;;
15385;SDS011;7791;47.246;9.648;2022-08-02T03:14:11;3.93;;;1.80;;
15385;SDS011;7791;47.246;9.648;2022-08-02T03:16:57;4.43;;;2.20;;
15385;SDS011;7791;47.246;9.648;2022-08-02T03:19:25;3.17;;;1.83;;
15385;SDS011;7791;47.246;9.648;2022-08-02T03:21:55;4.33;;;3.40;;
15385;SDS011;7791;47.246;9.648;2022-08-02T03:24:23;5.07;;;3.33;;
15385;SDS011;7791;47.246;9.648;2022-08-02T03:26:54;5.90;;;2.87;;
15385;SDS011;7791;47.246;9.648;2022-08-02T03:29:24;2.63;;;2.10;;
15385;SDS011;7791;47.246;9.648;2022-08-02T03:31:51;3.70;;;1.57;;
15385;SDS011;7791;47.246;9.648;2022-08-02T03:34:21;4.50;;;1.80;;
15385;SDS011;7791;47.246;9.648;2022-08-02T03:36:53;3.03;;;1.70;;
15385;SDS011;7791;47.246;9.648;2022-08-02T03:39:21;2.60;;;1.70;;
15385;SDS011;7791;47.246;9.648;2022-08-02T03:41:50;3.67;;;1.70;;
15385;SDS011;7791;47.246;9.648;2022-08-02T03:44:20;6.20;;;2.30;;
15385;SDS011;7791;47.246;9.648;2022-08-02T03:46:50;2.13;;;1.57;;
15385;SDS011;7791;47.246;9.648;2022-08-02T03:49:17;2.97;;;1.97;;
15385;SDS011;7791;47.246;9.648;2022-08-02T03:51:53;3.97;;;1.83;;
15385;SDS011;7791;47.246;9.648;2022-08-02T03:54:21;3.43;;;1.70;;
15385;SDS011;7791;47.246;9.648;2022-08-02T03:56:59;8.20;;;2.10;;
15385;SDS011;7791;47.246;9.648;2022-08-02T03:59:25;3.30;;;2.10;;
15385;SDS011;7791;47.246;9.648;2022-08-02T04:01:51;3.77;;;2.40;;
15385;SDS011;7791;47.246;9.648;2022-08-02T04:04:17;2.77;;;2.00;;
15385;SDS011;7791;47.246;9.648;2022-08-02T04:06:44;2.67;;;2.10;;
15385;SDS011;7791;47.246;9.648;2022-08-02T04:09:13;4.63;;;2.03;;
15385;SDS011;7791;47.246;9.648;2022-08-02T04:11:41;5.53;;;2.13;;
15385;SDS011;7791;47.246;9.648;2022-08-02T04:14:08;2.43;;;1.87;;
15385;SDS011;7791;47.246;9.648;2022-08-02T04:16:37;3.37;;;1.80;;
15385;SDS011;7791;47.246;9.648;2022-08-02T04:19:10;2.40;;;1.80;;
15385;SDS011;7791;47.246;9.648;2022-08-02T04:21:45;1.90;;;1.70;;
15385;SDS011;7791;47.246;9.648;2022-08-02T04:24:16;1.90;;;1.70;;
15385;SDS011;7791;47.246;9.648;2022-08-02T04:26:50;3.77;;;2.00;;
15385;SDS011;7791;47.246;9.648;2022-08-02T04:29:21;3.93;;;1.60;;
15385;SDS011;7791;47.246;9.648;2022-08-02T04:31:49;3.93;;;1.67;;
15385;SDS011;7791;47.246;9.648;2022-08-02T04:34:17;8.97;;;1.80;;
15385;SDS011;7791;47.246;9.648;2022-08-02T04:36:45;3.57;;;1.80;;
15385;SDS011;7791;47.246;9.648;2022-08-02T04:39:11;4.23;;;1.90;;
15385;SDS011;7791;47.246;9.648;2022-08-02T04:41:40;5.10;;;2.00;;
15385;SDS011;7791;47.246;9.648;2022-08-02T04:44:14;4.93;;;2.03;;
15385;SDS011;7791;47.246;9.648;2022-08-02T04:46:43;4.23;;;2.03;;
15385;SDS011;7791;47.246;9.648;2022-08-02T04:49:12;2.40;;;1.90;;
15385;SDS011;7791;47.246;9.648;2022-08-02T04:51:40;2.97;;;2.10;;
15385;SDS011;7791;47.246;9.648;2022-08-02T04:54:10;6.47;;;2.20;;
15385;SDS011;7791;47.246;9.648;2022-08-02T04:56:40;4.77;;;2.20;;
15385;SDS011;7791;47.246;9.648;2022-08-02T05:02:05;5.40;;;2.43;;
15385;SDS011;7791;47.246;9.648;2022-08-02T05:04:32;3.60;;;2.40;;
15385;SDS011;7791;47.246;9.648;2022-08-02T05:06:59;3.50;;;2.20;;
15385;SDS011;7791;47.246;9.648;2022-08-02T05:09:25;6.83;;;2.50;;
15385;SDS011;7791;47.246;9.648;2022-08-02T05:11:58;5.30;;;2.30;;
15385;SDS011;7791;47.246;9.648;2022-08-02T05:14:27;6.73;;;2.37;;
15385;SDS011;7791;47.246;9.648;2022-08-02T05:16:59;3.47;;;2.40;;
15385;SDS011;7791;47.246;9.648;2022-08-02T05:19:30;4.17;;;2.07;;
15385;SDS011;7791;47.246;9.648;2022-08-02T05:21:56;4.20;;;2.20;;
15385;SDS011;7791;47.246;9.648;2022-08-02T05:24:26;5.43;;;2.17;;
15385;SDS011;7791;47.246;9.648;2022-08-02T05:26:53;4.83;;;2.27;;
15385;SDS011;7791;47.246;9.648;2022-08-02T05:29:20;3.27;;;2.50;;
15385;SDS011;7791;47.246;9.648;2022-08-02T05:31:47;5.00;;;2.30;;
15385;SDS011;7791;47.246;9.648;2022-08-02T05:34:13;4.60;;;2.30;;
15385;SDS011;7791;47.246;9.648;2022-08-02T05:36:39;2.63;;;1.90;;
15385;SDS011;7791;47.246;9.648;2022-08-02T05:39:08;4.00;;;2.27;;
15385;SDS011;7791;47.246;9.648;2022-08-02T05:41:35;3.07;;;2.00;;
15385;SDS011;7791;47.246;9.648;2022-08-02T05:44:11;2.63;;;1.93;;
15385;SDS011;7791;47.246;9.648;2022-08-02T05:46:45;2.00;;;1.80;;
15385;SDS011;7791;47.246;9.648;2022-08-02T05:49:17;1.90;;;1.50;;
15385;SDS011;7791;47.246;9.648;2022-08-02T05:51:59;1.70;;;1.40;;
15385;SDS011;7791;47.246;9.648;2022-08-02T05:54:39;1.33;;;1.23;;
15385;SDS011;7791;47.246;9.648;2022-08-02T05:57:15;1.00;;;0.90;;
15385;SDS011;7791;47.246;9.648;2022-08-02T05:59:53;2.37;;;0.97;;
15385;SDS011;7791;47.246;9.648;2022-08-02T06:02:43;2.30;;;1.00;;
15385;SDS011;7791;47.246;9.648;2022-08-02T06:05:33;2.28;;;1.08;;
15385;SDS011;7791;47.246;9.648;2022-08-02T06:08:08;1.20;;;1.00;;
15385;SDS011;7791;47.246;9.648;2022-08-02T06:10:36;5.28;;;1.15;;
15385;SDS011;7791;47.246;9.648;2022-08-02T06:13:06;2.05;;;0.90;;
15385;SDS011;7791;47.246;9.648;2022-08-02T06:15:36;1.52;;;1.10;;
15385;SDS011;7791;47.246;9.648;2022-08-02T06:18:08;2.65;;;1.17;;
15385;SDS011;7791;47.246;9.648;2022-08-02T06:20:40;2.05;;;1.08;;
15385;SDS011;7791;47.246;9.648;2022-08-02T06:23:07;1.52;;;1.00;;
15385;SDS011;7791;47.246;9.648;2022-08-02T06:25:40;1.45;;;1.05;;
15385;SDS011;7791;47.246;9.648;2022-08-02T06:28:14;1.50;;;1.00;;
15385;SDS011;7791;47.246;9.648;2022-08-02T06:30:45;1.40;;;1.00;;
15385;SDS011;7791;47.246;9.648;2022-08-02T06:33:13;1.40;;;1.02;;
15385;SDS011;7791;47.246;9.648;2022-08-02T06:35:45;2.20;;;1.00;;
15385;SDS011;7791;47.246;9.648;2022-08-02T06:38:17;1.23;;;0.90;;
15385;SDS011;7791;47.246;9.648;2022-08-02T06:40:47;3.45;;;1.00;;
15385;SDS011;7791;47.246;9.648;2022-08-02T06:43:22;1.70;;;1.00;;
15385;SDS011;7791;47.246;9.648;2022-08-02T06:46:00;1.10;;;1.00;;
15385;SDS011;7791;47.246;9.648;2022-08-02T06:48:34;1.30;;;0.95;;
15385;SDS011;7791;47.246;9.648;2022-08-02T06:51:11;1.10;;;1.00;;
15385;SDS011;7791;47.246;9.648;2022-08-02T06:53:39;2.00;;;1.00;;
15385;SDS011;7791;47.246;9.648;2022-08-02T06:56:08;2.97;;;0.93;;
15385;SDS011;7791;47.246;9.648;2022-08-02T06:58:39;1.77;;;1.25;;
15385;SDS011;7791;47.246;9.648;2022-08-02T07:01:08;1.58;;;1.20;;
15385;SDS011;7791;47.246;9.648;2022-08-02T07:03:39;1.98;;;1.10;;
15385;SDS011;7791;47.246;9.648;2022-08-02T07:06:14;1.90;;;1.10;;
15385;SDS011;7791;47.246;9.648;2022-08-02T07:08:50;2.85;;;1.10;;
15385;SDS011;7791;47.246;9.648;2022-08-02T07:11:18;3.47;;;1.30;;
15385;SDS011;7791;47.246;9.648;2022-08-02T07:13:45;1.05;;;0.90;;
15385;SDS011;7791;47.246;9.648;2022-08-02T07:16:12;1.10;;;1.00;;
15385;SDS011;7791;47.246;9.648;2022-08-02T07:18:40;2.45;;;1.02;;
15385;SDS011;7791;47.246;9.648;2022-08-02T07:21:07;2.65;;;1.23;;
15385;SDS011;7791;47.246;9.648;2022-08-02T07:23:44;2.20;;;1.13;;
15385;SDS011;7791;47.246;9.648;2022-08-02T07:26:13;1.35;;;1.00;;
15385;SDS011;7791;47.246;9.648;2022-08-02T07:28:40;2.38;;;1.25;;
15385;SDS011;7791;47.246;9.648;2022-08-02T07:31:08;1.20;;;1.08;;
15385;SDS011;7791;47.246;9.648;2022-08-02T07:33:33;1.90;;;1.00;;
15385;SDS011;7791;47.246;9.648;2022-08-02T07:36:03;2.63;;;1.10;;
15385;SDS011;7791;47.246;9.648;2022-08-02T07:38:35;1.27;;;1.00;;
15385;SDS011;7791;47.246;9.648;2022-08-02T07:41:04;1.95;;;1.42;;
15385;SDS011;7791;47.246;9.648;2022-08-02T07:43:30;2.13;;;1.25;;
15385;SDS011;7791;47.246;9.648;2022-08-02T07:45:56;3.83;;;1.45;;
15385;SDS011;7791;47.246;9.648;2022-08-02T07:48:23;1.52;;;1.30;;
15385;SDS011;7791;47.246;9.648;2022-08-02T07:50:55;1.52;;;1.25;;
15385;SDS011;7791;47.246;9.648;2022-08-02T07:53:24;1.45;;;1.30;;
15385;SDS011;7791;47.246;9.648;2022-08-02T07:55:51;2.67;;;1.30;;
15385;SDS011;7791;47.246;9.648;2022-08-02T07:58:22;2.13;;;1.20;;
15385;SDS011;7791;47.246;9.648;2022-08-02T08:00:49;1.17;;;1.08;;
15385;SDS011;7791;47.246;9.648;2022-08-02T08:03:17;2.60;;;1.30;;
15385;SDS011;7791;47.246;9.648;2022-08-02T08:05:46;4.05;;;1.20;;
15385;SDS011;7791;47.246;9.648;2022-08-02T08:08:15;1.98;;;1.38;;
15385;SDS011;7791;47.246;9.648;2022-08-02T08:10:47;5.45;;;1.40;;
15385;SDS011;7791;47.246;9.648;2022-08-02T08:13:20;3.15;;;1.52;;
15385;SDS011;7791;47.246;9.648;2022-08-02T08:15:47;7.20;;;1.85;;
15385;SDS011;7791;47.246;9.648;2022-08-02T08:18:18;9.00;;;1.98;;
15385;SDS011;7791;47.246;9.648;2022-08-02T08:20:46;11.70;;;2.15;;
15385;SDS011;7791;47.246;9.648;2022-08-02T08:23:14;7.13;;;1.92;;
15385;SDS011;7791;47.246;9.648;2022-08-02T08:25:52;12.63;;;2.03;;
15385;SDS011;7791;47.246;9.648;2022-08-02T08:28:23;10.77;;;2.20;;
15385;SDS011;7791;47.246;9.648;2022-08-02T08:30:49;8.18;;;1.83;;
15385;SDS011;7791;47.246;9.648;2022-08-02T08:33:17;13.02;;;2.17;;
15385;SDS011;7791;47.246;9.648;2022-08-02T08:35:48;5.78;;;1.80;;
15385;SDS011;7791;47.246;9.648;2022-08-02T08:38:18;5.93;;;1.60;;
15385;SDS011;7791;47.246;9.648;2022-08-02T08:40:47;7.28;;;1.88;;
15385;SDS011;7791;47.246;9.648;2022-08-02T08:43:15;4.10;;;1.50;;
15385;SDS011;7791;47.246;9.648;2022-08-02T08:45:53;3.58;;;1.65;;
15385;SDS011;7791;47.246;9.648;2022-08-02T08:48:26;5.65;;;1.63;;
15385;SDS011;7791;47.246;9.648;2022-08-02T08:50:55;3.58;;;1.77;;
15385;SDS011;7791;47.246;9.648;2022-08-02T08:53:25;10.75;;;2.00;;
15385;SDS011;7791;47.246;9.648;2022-08-02T08:55:58;3.38;;;1.80;;
15385;SDS011;7791;47.246;9.648;2022-08-02T08:58:30;9.20;;;2.70;;
15385;SDS011;7791;47.246;9.648;2022-08-02T09:01:08;5.30;;;1.40;;
15385;SDS011;7791;47.246;9.648;2022-08-02T09:03:35;5.95;;;1.80;;
15385;SDS011;7791;47.246;9.648;2022-08-02T09:06:01;4.50;;;1.55;;
15385;SDS011;7791;47.246;9.648;2022-08-02T09:08:29;4.45;;;1.40;;
15385;SDS011;7791;47.246;9.648;2022-08-02T09:10:56;4.28;;;1.65;;
15385;SDS011;7791;47.246;9.648;2022-08-02T09:13:39;3.22;;;1.30;;
15385;SDS011;7791;47.246;9.648;2022-08-02T09:16:25;5.72;;;1.90;;
15385;SDS011;7791;47.246;9.648;2022-08-02T09:19:15;5.38;;;1.50;;
15385;SDS011;7791;47.246;9.648;2022-08-02T09:21:44;6.13;;;1.83;;
15385;SDS011;7791;47.246;9.648;2022-08-02T09:24:16;4.88;;;1.55;;
15385;SDS011;7791;47.246;9.648;2022-08-02T09:26:43;3.55;;;1.52;;
15385;SDS011;7791;47.246;9.648;2022-08-02T09:29:12;1.63;;;1.30;;
15385;SDS011;7791;47.246;9.648;2022-08-02T09:31:49;1.67;;;1.30;;
15385;SDS011;7791;47.246;9.648;2022-08-02T09:34:28;2.10;;;1.08;;
15385;SDS011;7791;47.246;9.648;2022-08-02T09:37:20;1.63;;;1.10;;
15385;SDS011;7791;47.246;9.648;2022-08-02T09:39:48;1.20;;;1.00;;
15385;SDS011;7791;47.246;9.648;2022-08-02T09:42:18;1.33;;;1.20;;
15385;SDS011;7791;47.246;9.648;2022-08-02T09:44:56;3.10;;;1.00;;
15385;SDS011;7791;47.246;9.648;2022-08-02T09:47:30;5.22;;;1.05;;
15385;SDS011;7791;47.246;9.648;2022-08-02T09:50:06;2.55;;;0.93;;
15385;SDS011;7791;47.246;9.648;2022-08-02T09:52:38;4.78;;;1.20;;
15385;SDS011;7791;47.246;9.648;2022-08-02T09:55:09;2.38;;;1.00;;
15385;SDS011;7791;47.246;9.648;2022-08-02T09:57:36;1.13;;;0.88;;
15385;SDS011;7791;47.246;9.648;2022-08-02T10:00:07;1.10;;;0.82;;
15385;SDS011;7791;47.246;9.648;2022-08-02T10:02:38;1.30;;;1.08;;
15385;SDS011;7791;47.246;9.648;2022-08-02T10:05:28;0.93;;;0.63;;
15385;SDS011;7791;47.246;9.648;2022-08-02T10:08:14;1.00;;;0.90;;
15385;SDS011;7791;47.246;9.648;2022-08-02T10:10:41;1.48;;;0.80;;
15385;SDS011;7791;47.246;9.648;2022-08-02T10:13:10;1.50;;;0.70;;
15385;SDS011;7791;47.246;9.648;2022-08-02T10:15:39;2.95;;;0.85;;
15385;SDS011;7791;47.246;9.648;2022-08-02T10:18:09;1.63;;;0.90;;
15385;SDS011;7791;47.246;9.648;2022-08-02T10:20:42;0.95;;;0.90;;
15385;SDS011;7791;47.246;9.648;2022-08-02T10:23:10;0.90;;;0.90;;
15385;SDS011;7791;47.246;9.648;2022-08-02T10:25:39;1.95;;;1.20;;
15385;SDS011;7791;47.246;9.648;2022-08-02T10:28:10;1.70;;;1.30;;
15385;SDS011;7791;47.246;9.648;2022-08-02T10:30:45;1.77;;;1.40;;
15385;SDS011;7791;47.246;9.648;2022-08-02T10:33:16;1.50;;;1.40;;
15385;SDS011;7791;47.246;9.648;2022-08-02T10:35:55;2.60;;;1.05;;
15385;SDS011;7791;47.246;9.648;2022-08-02T10:38:23;3.65;;;1.42;;
15385;SDS011;7791;47.246;9.648;2022-08-02T10:40:54;1.83;;;1.40;;
15385;SDS011;7791;47.246;9.648;2022-08-02T10:46:29;1.90;;;1.48;;
15385;SDS011;7791;47.246;9.648;2022-08-02T10:49:03;2.35;;;1.48;;
15385;SDS011;7791;47.246;9.648;2022-08-02T10:57:36;1.30;;;1.10;;
15385;SDS011;7791;47.246;9.648;2022-08-02T11:00:09;2.35;;;1.20;;
15385;SDS011;7791;47.246;9.648;2022-08-02T11:02:57;2.47;;;1.25;;
15385;SDS011;7791;47.246;9.648;2022-08-02T11:05:27;3.60;;;1.20;;
15385;SDS011;7791;47.246;9.648;2022-08-02T11:07:54;2.30;;;1.30;;
15385;SDS011;7791;47.246;9.648;2022-08-02T11:10:37;2.10;;;1.20;;
15385;SDS011;7791;47.246;9.648;2022-08-02T11:13:14;2.08;;;1.33;;
15385;SDS011;7791;47.246;9.648;2022-08-02T11:15:49;1.65;;;1.10;;
15385;SDS011;7791;47.246;9.648;2022-08-02T11:18:25;1.75;;;1.52;;
15385;SDS011;7791;47.246;9.648;2022-08-02T11:21:35;1.70;;;1.50;;
15385;SDS011;7791;47.246;9.648;2022-08-02T11:26:49;4.03;;;1.45;;
15385;SDS011;7791;47.246;9.648;2022-08-02T11:29:18;2.60;;;1.42;;
15385;SDS011;7791;47.246;9.648;2022-08-02T11:31:46;1.67;;;1.50;;
15385;SDS011;7791;47.246;9.648;2022-08-02T11:34:15;3.13;;;1.48;;
15385;SDS011;7791;47.246;9.648;2022-08-02T11:36:42;2.13;;;1.40;;
15385;SDS011;7791;47.246;9.648;2022-08-02T11:39:12;1.50;;;1.40;;
15385;SDS011;7791;47.246;9.648;2022-08-02T11:41:47;2.00;;;1.48;;
15385;SDS011;7791;47.246;9.648;2022-08-02T11:44:17;5.82;;;1.40;;
15385;SDS011;7791;47.246;9.648;2022-08-02T11:46:44;1.42;;;1.30;;
15385;SDS011;7791;47.246;9.648;2022-08-02T11:49:20;1.77;;;1.40;;
15385;SDS011;7791;47.246;9.648;2022-08-02T11:51:58;2.25;;;1.30;;
15385;SDS011;7791;47.246;9.648;2022-08-02T11:54:28;2.65;;;1.20;;
15385;SDS011;7791;47.246;9.648;2022-08-02T12:02:48;3.75;;;1.30;;
15385;SDS011;7791;47.246;9.648;2022-08-02T12:05:18;2.10;;;1.30;;
15385;SDS011;7791;47.246;9.648;2022-08-02T12:07:48;2.28;;;1.30;;
15385;SDS011;7791;47.246;9.648;2022-08-02T12:10:18;1.83;;;1.50;;
15385;SDS011;7791;47.246;9.648;2022-08-02T12:12:46;2.13;;;1.23;;
15385;SDS011;7791;47.246;9.648;2022-08-02T12:15:27;1.63;;;1.38;;
15385;SDS011;7791;47.246;9.648;2022-08-02T12:18:01;1.77;;;1.27;;
15385;SDS011;7791;47.246;9.648;2022-08-02T12:20:36;2.28;;;1.50;;
15385;SDS011;7791;47.246;9.648;2022-08-02T12:23:03;1.30;;;1.20;;
15385;SDS011;7791;47.246;9.648;2022-08-02T12:25:32;1.70;;;1.20;;
15385;SDS011;7791;47.246;9.648;2022-08-02T12:28:11;2.58;;;1.50;;
15385;SDS011;7791;47.246;9.648;2022-08-02T12:30:51;2.00;;;1.50;;
15385;SDS011;7791;47.246;9.648;2022-08-02T12:33:25;2.25;;;1.38;;
15385;SDS011;7791;47.246;9.648;2022-08-02T12:35:54;2.08;;;1.50;;
15385;SDS011;7791;47.246;9.648;2022-08-02T12:38:33;1.70;;;1.35;;
15385;SDS011;7791;47.246;9.648;2022-08-02T12:41:16;2.60;;;1.58;;
15385;SDS011;7791;47.246;9.648;2022-08-02T12:43:43;2.22;;;1.77;;
15385;SDS011;7791;47.246;9.648;2022-08-02T12:46:14;2.35;;;1.40;;
15385;SDS011;7791;47.246;9.648;2022-08-02T12:48:50;2.03;;;1.50;;
15385;SDS011;7791;47.246;9.648;2022-08-02T12:51:21;1.70;;;1.60;;
15385;SDS011;7791;47.246;9.648;2022-08-02T12:53:49;1.80;;;1.48;;
15385;SDS011;7791;47.246;9.648;2022-08-02T12:56:29;3.28;;;1.50;;
15385;SDS011;7791;47.246;9.648;2022-08-02T12:59:01;3.85;;;1.50;;
15385;SDS011;7791;47.246;9.648;2022-08-02T13:01:37;2.10;;;1.73;;
15385;SDS011;7791;47.246;9.648;2022-08-02T13:04:13;3.20;;;1.70;;
15385;SDS011;7791;47.246;9.648;2022-08-02T13:06:42;2.15;;;1.50;;
15385;SDS011;7791;47.246;9.648;2022-08-02T13:09:14;2.45;;;1.63;;
15385;SDS011;7791;47.246;9.648;2022-08-02T13:11:48;1.77;;;1.58;;
15385;SDS011;7791;47.246;9.648;2022-08-02T13:14:21;1.65;;;1.40;;
15385;SDS011;7791;47.246;9.648;2022-08-02T13:16:49;2.45;;;1.33;;
15385;SDS011;7791;47.246;9.648;2022-08-02T13:19:18;3.72;;;1.70;;
15385;SDS011;7791;47.246;9.648;2022-08-02T13:21:47;1.85;;;1.48;;
15385;SDS011;7791;47.246;9.648;2022-08-02T13:24:20;2.15;;;1.67;;
15385;SDS011;7791;47.246;9.648;2022-08-02T13:26:51;1.83;;;1.35;;
15385;SDS011;7791;47.246;9.648;2022-08-02T13:29:21;3.33;;;1.48;;
15385;SDS011;7791;47.246;9.648;2022-08-02T13:31:56;1.90;;;1.48;;
15385;SDS011;7791;47.246;9.648;2022-08-02T13:34:23;2.00;;;1.80;;
15385;SDS011;7791;47.246;9.648;2022-08-02T13:36:51;3.13;;;1.75;;
15385;SDS011;7791;47.246;9.648;2022-08-02T13:39:20;1.83;;;1.42;;
15385;SDS011;7791;47.246;9.648;2022-08-02T13:41:47;2.40;;;1.55;;
15385;SDS011;7791;47.246;9.648;2022-08-02T13:44:17;3.47;;;1.73;;
15385;SDS011;7791;47.246;9.648;2022-08-02T13:46:48;2.72;;;1.67;;
15385;SDS011;7791;47.246;9.648;2022-08-02T13:49:22;2.03;;;1.50;;
15385;SDS011;7791;47.246;9.648;2022-08-02T13:51:51;2.63;;;2.00;;
15385;SDS011;7791;47.246;9.648;2022-08-02T13:54:17;1.70;;;1.60;;
15385;SDS011;7791;47.246;9.648;2022-08-02T13:56:46;3.10;;;1.80;;
15385;SDS011;7791;47.246;9.648;2022-08-02T13:59:13;2.33;;;1.90;;
15385;SDS011;7791;47.246;9.648;2022-08-02T14:01:44;2.05;;;1.80;;
15385;SDS011;7791;47.246;9.648;2022-08-02T14:07:23;2.00;;;1.73;;
15385;SDS011;7791;47.246;9.648;2022-08-02T14:09:49;4.20;;;1.83;;
15385;SDS011;7791;47.246;9.648;2022-08-02T14:12:15;1.98;;;1.70;;
15385;SDS011;7791;47.246;9.648;2022-08-02T14:14:40;1.90;;;1.70;;
15385;SDS011;7791;47.246;9.648;2022-08-02T14:17:06;2.60;;;1.83;;
15385;SDS011;7791;47.246;9.648;2022-08-02T14:19:32;3.00;;;1.98;;
15385;SDS011;7791;47.246;9.648;2022-08-02T14:21:57;3.55;;;2.15;;
15385;SDS011;7791;47.246;9.648;2022-08-02T14:24:25;2.58;;;1.60;;
15385;SDS011;7791;47.246;9.648;2022-08-02T14:26:50;2.85;;;1.60;;
15385;SDS011;7791;47.246;9.648;2022-08-02T14:29:16;5.57;;;1.50;;
15385;SDS011;7791;47.246;9.648;2022-08-02T14:31:42;3.25;;;1.92;;
15385;SDS011;7791;47.246;9.648;2022-08-02T14:34:08;2.92;;;1.60;;
15385;SDS011;7791;47.246;9.648;2022-08-02T14:36:35;4.53;;;2.05;;
15385;SDS011;7791;47.246;9.648;2022-08-02T14:39:01;3.20;;;1.67;;
15385;SDS011;7791;47.246;9.648;2022-08-02T14:41:28;1.73;;;1.63;;
15385;SDS011;7791;47.246;9.648;2022-08-02T14:43:53;2.78;;;1.60;;
15385;SDS011;7791;47.246;9.648;2022-08-02T14:46:19;3.30;;;1.60;;
15385;SDS011;7791;47.246;9.648;2022-08-02T14:48:45;2.40;;;1.80;;
15385;SDS011;7791;47.246;9.648;2022-08-02T14:51:10;2.13;;;1.80;;
15385;SDS011;7791;47.246;9.648;2022-08-02T14:53:36;3.97;;;1.90;;
15385;SDS011;7791;47.246;9.648;2022-08-02T14:56:02;3.10;;;1.70;;
15385;SDS011;7791;47.246;9.648;2022-08-02T14:58:29;1.60;;;1.50;;
15385;SDS011;7791;47.246;9.648;2022-08-02T15:00:55;1.70;;;1.60;;
15385;SDS011;7791;47.246;9.648;2022-08-02T15:03:21;3.50;;;1.65;;
15385;SDS011;7791;47.246;9.648;2022-08-02T15:05:46;2.03;;;1.67;;
15385;SDS011;7791;47.246;9.648;2022-08-02T15:08:12;1.75;;;1.65;;
15385;SDS011;7791;47.246;9.648;2022-08-02T15:10:38;1.92;;;1.45;;
15385;SDS011;7791;47.246;9.648;2022-08-02T15:13:04;1.83;;;1.52;;
15385;SDS011;7791;47.246;9.648;2022-08-02T15:15:31;2.15;;;1.80;;
15385;SDS011;7791;47.246;9.648;2022-08-02T15:17:57;4.97;;;2.00;;
15385;SDS011;7791;47.246;9.648;2022-08-02T15:20:41;2.53;;;1.83;;
15385;SDS011;7791;47.246;9.648;2022-08-02T15:23:07;3.13;;;1.48;;
15385;SDS011;7791;47.246;9.648;2022-08-02T15:25:33;1.73;;;1.60;;
15385;SDS011;7791;47.246;9.648;2022-08-02T15:27:59;2.90;;;1.70;;
15385;SDS011;7791;47.246;9.648;2022-08-02T15:30:25;1.63;;;1.52;;
15385;SDS011;7791;47.246;9.648;2022-08-02T15:32:52;1.85;;;1.70;;
15385;SDS011;7791;47.246;9.648;2022-08-02T15:35:18;2.25;;;1.50;;
15385;SDS011;7791;47.246;9.648;2022-08-02T15:37:43;2.33;;;1.85;;
15385;SDS011;7791;47.246;9.648;2022-08-02T15:40:09;4.40;;;1.52;;
15385;SDS011;7791;47.246;9.648;2022-08-02T15:42:36;1.98;;;1.77;;
15385;SDS011;7791;47.246;9.648;2022-08-02T15:45:01;2.53;;;1.60;;
15385;SDS011;7791;47.246;9.648;2022-08-02T15:47:27;2.80;;;1.60;;
15385;SDS011;7791;47.246;9.648;2022-08-02T15:49:54;2.40;;;2.00;;
15385;SDS011;7791;47.246;9.648;2022-08-02T15:52:20;3.40;;;1.90;;